sensor_id;sensor_type;location;lat;lon;timestamp;temperature;humidity
20560;DHT22;10438;51.454;6.718;2022-08-05T00:01:49;19.20;99.90
20560;DHT22;10438;51.454;6.718;2022-08-05T00:04:16;19.20;99.90
20560;DHT22;10438;51.454;6.718;2022-08-05T00:06:42;19.20;99.90
20560;DHT22;10438;51.454;6.718;2022-08-05T00:09:07;19.20;99.90
20560;DHT22;10438;51.454;6.718;2022-08-05T00:11:33;19.20;99.90
20560;DHT22;10438;51.454;6.718;2022-08-05T00:13:58;19.20;99.90
20560;DHT22;10438;51.454;6.718;2022-08-05T00:16:24;19.10;99.90
20560;DHT22;10438;51.454;6.718;2022-08-05T00:18:50;19.10;99.90
20560;DHT22;10438;51.454;6.718;2022-08-05T00:21:16;19.10;99.90
20560;DHT22;10438;51.454;6.718;2022-08-05T00:23:44;19.10;99.90
20560;DHT22;10438;51.454;6.718;2022-08-05T00:26:10;19.10;99.90
20560;DHT22;10438;51.454;6.718;2022-08-05T00:28:36;19.10;99.90
20560;DHT22;10438;51.454;6.718;2022-08-05T00:31:03;19.10;99.90
20560;DHT22;10438;51.454;6.718;2022-08-05T00:33:28;19.10;99.90
20560;DHT22;10438;51.454;6.718;2022-08-05T00:35:54;19.10;99.90
20560;DHT22;10438;51.454;6.718;2022-08-05T00:38:20;19.10;99.90
20560;DHT22;10438;51.454;6.718;2022-08-05T00:40:48;19.10;99.90
20560;DHT22;10438;51.454;6.718;2022-08-05T00:43:14;19.10;99.90
20560;DHT22;10438;51.454;6.718;2022-08-05T00:45:39;19.10;99.90
20560;DHT22;10438;51.454;6.718;2022-08-05T00:48:06;19.10;99.90
20560;DHT22;10438;51.454;6.718;2022-08-05T00:50:32;19.00;99.90
20560;DHT22;10438;51.454;6.718;2022-08-05T00:52:58;18.90;99.90
20560;DHT22;10438;51.454;6.718;2022-08-05T00:55:23;18.90;99.90
20560;DHT22;10438;51.454;6.718;2022-08-05T00:57:49;18.90;99.90
20560;DHT22;10438;51.454;6.718;2022-08-05T01:00:15;18.90;99.90
20560;DHT22;10438;51.454;6.718;2022-08-05T01:02:40;18.90;99.90
20560;DHT22;10438;51.454;6.718;2022-08-05T01:05:06;18.90;99.90
20560;DHT22;10438;51.454;6.718;2022-08-05T01:07:32;18.80;99.90
20560;DHT22;10438;51.454;6.718;2022-08-05T01:09:57;18.80;99.90
20560;DHT22;10438;51.454;6.718;2022-08-05T01:12:24;18.80;99.90
20560;DHT22;10438;51.454;6.718;2022-08-05T01:15:05;18.70;99.90
20560;DHT22;10438;51.454;6.718;2022-08-05T01:17:49;18.70;99.90
20560;DHT22;10438;51.454;6.718;2022-08-05T01:28:42;18.70;99.90
20560;DHT22;10438;51.454;6.718;2022-08-05T01:31:29;18.70;99.90
20560;DHT22;10438;51.454;6.718;2022-08-05T01:34:12;18.70;99.90
20560;DHT22;10438;51.454;6.718;2022-08-05T01:36:43;18.70;99.90
20560;DHT22;10438;51.454;6.718;2022-08-05T01:39:11;18.80;99.90
20560;DHT22;10438;51.454;6.718;2022-08-05T01:41:38;18.70;99.90
20560;DHT22;10438;51.454;6.718;2022-08-05T01:44:07;18.80;99.90
20560;DHT22;10438;51.454;6.718;2022-08-05T01:46:34;18.80;99.90
20560;DHT22;10438;51.454;6.718;2022-08-05T01:49:01;18.70;99.90
20560;DHT22;10438;51.454;6.718;2022-08-05T01:51:30;18.80;99.90
20560;DHT22;10438;51.454;6.718;2022-08-05T01:53:58;18.80;99.90
20560;DHT22;10438;51.454;6.718;2022-08-05T01:56:31;18.70;99.90
20560;DHT22;10438;51.454;6.718;2022-08-05T01:59:03;18.70;99.90
20560;DHT22;10438;51.454;6.718;2022-08-05T02:01:29;18.70;99.90
20560;DHT22;10438;51.454;6.718;2022-08-05T02:03:56;18.80;99.90
20560;DHT22;10438;51.454;6.718;2022-08-05T02:06:23;18.80;99.90
20560;DHT22;10438;51.454;6.718;2022-08-05T02:08:53;18.80;99.90
20560;DHT22;10438;51.454;6.718;2022-08-05T02:11:19;18.80;99.90
20560;DHT22;10438;51.454;6.718;2022-08-05T02:16:53;18.90;99.90
20560;DHT22;10438;51.454;6.718;2022-08-05T02:24:33;18.90;99.90
20560;DHT22;10438;51.454;6.718;2022-08-05T02:27:02;18.80;99.90
20560;DHT22;10438;51.454;6.718;2022-08-05T02:29:31;18.70;99.90
20560;DHT22;10438;51.454;6.718;2022-08-05T02:31:58;18.70;99.90
20560;DHT22;10438;51.454;6.718;2022-08-05T02:34:29;18.60;99.90
20560;DHT22;10438;51.454;6.718;2022-08-05T02:36:59;18.60;99.90
20560;DHT22;10438;51.454;6.718;2022-08-05T02:39:27;18.50;99.90
20560;DHT22;10438;51.454;6.718;2022-08-05T02:41:54;18.50;99.90
20560;DHT22;10438;51.454;6.718;2022-08-05T02:44:23;18.50;99.90
20560;DHT22;10438;51.454;6.718;2022-08-05T02:46:50;18.40;99.90
20560;DHT22;10438;51.454;6.718;2022-08-05T02:49:21;18.40;99.90
20560;DHT22;10438;51.454;6.718;2022-08-05T02:51:47;18.40;99.90
20560;DHT22;10438;51.454;6.718;2022-08-05T02:54:13;18.40;99.90
20560;DHT22;10438;51.454;6.718;2022-08-05T02:56:43;18.40;99.90
20560;DHT22;10438;51.454;6.718;2022-08-05T02:59:10;18.40;99.90
20560;DHT22;10438;51.454;6.718;2022-08-05T03:01:38;18.40;99.90
20560;DHT22;10438;51.454;6.718;2022-08-05T03:04:09;18.30;99.90
20560;DHT22;10438;51.454;6.718;2022-08-05T03:06:37;18.20;99.90
20560;DHT22;10438;51.454;6.718;2022-08-05T03:09:04;18.20;99.90
20560;DHT22;10438;51.454;6.718;2022-08-05T03:11:29;18.20;99.90
20560;DHT22;10438;51.454;6.718;2022-08-05T03:13:55;18.10;99.90
20560;DHT22;10438;51.454;6.718;2022-08-05T03:16:20;18.10;99.90
20560;DHT22;10438;51.454;6.718;2022-08-05T03:18:46;18.10;99.90
20560;DHT22;10438;51.454;6.718;2022-08-05T03:21:12;18.10;99.90
20560;DHT22;10438;51.454;6.718;2022-08-05T03:23:40;18.00;99.90
20560;DHT22;10438;51.454;6.718;2022-08-05T03:26:06;18.00;99.90
20560;DHT22;10438;51.454;6.718;2022-08-05T03:28:32;18.00;99.90
20560;DHT22;10438;51.454;6.718;2022-08-05T03:31:00;17.90;99.90
20560;DHT22;10438;51.454;6.718;2022-08-05T03:33:29;18.00;99.90
20560;DHT22;10438;51.454;6.718;2022-08-05T03:35:57;18.00;99.90
20560;DHT22;10438;51.454;6.718;2022-08-05T03:38:23;18.00;99.90
20560;DHT22;10438;51.454;6.718;2022-08-05T03:40:49;18.00;99.90
20560;DHT22;10438;51.454;6.718;2022-08-05T03:43:15;18.00;99.90
20560;DHT22;10438;51.454;6.718;2022-08-05T03:45:42;18.00;99.90
20560;DHT22;10438;51.454;6.718;2022-08-05T03:48:07;18.00;99.90
20560;DHT22;10438;51.454;6.718;2022-08-05T03:50:45;17.90;99.90
20560;DHT22;10438;51.454;6.718;2022-08-05T03:53:14;18.00;99.90
20560;DHT22;10438;51.454;6.718;2022-08-05T03:55:51;18.00;99.90
20560;DHT22;10438;51.454;6.718;2022-08-05T03:58:18;18.00;99.90
20560;DHT22;10438;51.454;6.718;2022-08-05T04:00:48;18.00;99.90
20560;DHT22;10438;51.454;6.718;2022-08-05T04:03:14;18.00;99.90
20560;DHT22;10438;51.454;6.718;2022-08-05T04:05:42;18.00;99.90
20560;DHT22;10438;51.454;6.718;2022-08-05T04:08:09;18.00;99.90
20560;DHT22;10438;51.454;6.718;2022-08-05T04:10:35;18.00;99.90
20560;DHT22;10438;51.454;6.718;2022-08-05T04:13:02;17.90;99.90
20560;DHT22;10438;51.454;6.718;2022-08-05T04:15:28;18.00;99.90
20560;DHT22;10438;51.454;6.718;2022-08-05T04:17:54;18.00;99.90
20560;DHT22;10438;51.454;6.718;2022-08-05T04:20:23;18.10;99.90
20560;DHT22;10438;51.454;6.718;2022-08-05T04:22:49;18.10;99.90
20560;DHT22;10438;51.454;6.718;2022-08-05T04:25:14;18.00;99.90
20560;DHT22;10438;51.454;6.718;2022-08-05T04:27:40;18.00;99.90
20560;DHT22;10438;51.454;6.718;2022-08-05T04:30:08;18.10;99.90
20560;DHT22;10438;51.454;6.718;2022-08-05T04:32:33;18.10;99.90
20560;DHT22;10438;51.454;6.718;2022-08-05T04:34:59;18.10;99.90
20560;DHT22;10438;51.454;6.718;2022-08-05T04:37:25;18.00;99.90
20560;DHT22;10438;51.454;6.718;2022-08-05T04:39:50;18.10;99.90
20560;DHT22;10438;51.454;6.718;2022-08-05T04:42:16;18.00;99.90
20560;DHT22;10438;51.454;6.718;2022-08-05T04:44:44;18.00;99.90
20560;DHT22;10438;51.454;6.718;2022-08-05T04:47:09;18.00;99.90
20560;DHT22;10438;51.454;6.718;2022-08-05T04:49:35;18.00;99.90
20560;DHT22;10438;51.454;6.718;2022-08-05T04:52:00;18.10;99.90
20560;DHT22;10438;51.454;6.718;2022-08-05T04:54:26;18.10;99.90
20560;DHT22;10438;51.454;6.718;2022-08-05T04:56:52;18.10;99.90
20560;DHT22;10438;51.454;6.718;2022-08-05T04:59:19;18.10;99.90
20560;DHT22;10438;51.454;6.718;2022-08-05T05:01:45;18.10;99.90
20560;DHT22;10438;51.454;6.718;2022-08-05T05:04:10;18.10;99.90
20560;DHT22;10438;51.454;6.718;2022-08-05T05:06:37;18.00;99.90
20560;DHT22;10438;51.454;6.718;2022-08-05T05:09:03;18.10;99.90
20560;DHT22;10438;51.454;6.718;2022-08-05T05:11:28;18.00;99.90
20560;DHT22;10438;51.454;6.718;2022-08-05T05:13:54;18.00;99.90
20560;DHT22;10438;51.454;6.718;2022-08-05T05:16:19;18.00;99.90
20560;DHT22;10438;51.454;6.718;2022-08-05T05:18:45;18.00;99.90
20560;DHT22;10438;51.454;6.718;2022-08-05T05:21:10;17.80;99.90
20560;DHT22;10438;51.454;6.718;2022-08-05T05:23:36;17.80;99.90
20560;DHT22;10438;51.454;6.718;2022-08-05T05:26:01;17.80;99.90
20560;DHT22;10438;51.454;6.718;2022-08-05T05:28:27;17.80;99.90
20560;DHT22;10438;51.454;6.718;2022-08-05T05:30:52;17.80;99.90
20560;DHT22;10438;51.454;6.718;2022-08-05T05:33:18;17.90;99.90
20560;DHT22;10438;51.454;6.718;2022-08-05T05:35:45;17.90;99.90
20560;DHT22;10438;51.454;6.718;2022-08-05T05:38:11;17.80;99.90
20560;DHT22;10438;51.454;6.718;2022-08-05T05:40:37;17.80;99.90
20560;DHT22;10438;51.454;6.718;2022-08-05T05:43:02;17.80;99.90
20560;DHT22;10438;51.454;6.718;2022-08-05T05:45:28;17.80;99.90
20560;DHT22;10438;51.454;6.718;2022-08-05T05:47:53;17.70;99.90
20560;DHT22;10438;51.454;6.718;2022-08-05T05:50:19;17.70;99.90
20560;DHT22;10438;51.454;6.718;2022-08-05T05:52:46;17.70;99.90
20560;DHT22;10438;51.454;6.718;2022-08-05T05:55:13;17.60;99.90
20560;DHT22;10438;51.454;6.718;2022-08-05T05:57:40;17.60;99.90
20560;DHT22;10438;51.454;6.718;2022-08-05T06:00:09;17.50;99.90
20560;DHT22;10438;51.454;6.718;2022-08-05T06:02:35;17.50;99.90
20560;DHT22;10438;51.454;6.718;2022-08-05T06:05:00;17.50;99.90
20560;DHT22;10438;51.454;6.718;2022-08-05T06:07:26;17.40;99.90
20560;DHT22;10438;51.454;6.718;2022-08-05T06:09:52;17.30;99.90
20560;DHT22;10438;51.454;6.718;2022-08-05T06:12:17;17.50;99.90
20560;DHT22;10438;51.454;6.718;2022-08-05T06:14:43;17.30;99.90
20560;DHT22;10438;51.454;6.718;2022-08-05T06:17:10;17.40;99.90
20560;DHT22;10438;51.454;6.718;2022-08-05T06:19:35;17.40;99.90
20560;DHT22;10438;51.454;6.718;2022-08-05T06:22:05;17.40;99.90
20560;DHT22;10438;51.454;6.718;2022-08-05T06:24:32;17.40;99.90
20560;DHT22;10438;51.454;6.718;2022-08-05T06:26:58;17.40;99.90
20560;DHT22;10438;51.454;6.718;2022-08-05T06:29:24;17.40;99.90
20560;DHT22;10438;51.454;6.718;2022-08-05T06:31:50;17.40;99.90
20560;DHT22;10438;51.454;6.718;2022-08-05T06:34:16;17.40;99.90
20560;DHT22;10438;51.454;6.718;2022-08-05T06:36:41;17.40;99.90
20560;DHT22;10438;51.454;6.718;2022-08-05T06:39:07;17.40;99.90
20560;DHT22;10438;51.454;6.718;2022-08-05T06:41:32;17.50;99.90
20560;DHT22;10438;51.454;6.718;2022-08-05T06:43:58;17.50;99.90
20560;DHT22;10438;51.454;6.718;2022-08-05T06:46:25;17.50;99.90
20560;DHT22;10438;51.454;6.718;2022-08-05T06:48:50;17.50;99.90
20560;DHT22;10438;51.454;6.718;2022-08-05T06:51:16;17.50;99.90
20560;DHT22;10438;51.454;6.718;2022-08-05T06:53:41;17.50;99.90
20560;DHT22;10438;51.454;6.718;2022-08-05T06:56:08;17.40;99.90
20560;DHT22;10438;51.454;6.718;2022-08-05T06:58:34;17.40;99.90
20560;DHT22;10438;51.454;6.718;2022-08-05T07:01:00;17.40;99.90
20560;DHT22;10438;51.454;6.718;2022-08-05T07:03:26;17.40;99.90
20560;DHT22;10438;51.454;6.718;2022-08-05T07:05:53;17.40;99.90
20560;DHT22;10438;51.454;6.718;2022-08-05T07:08:19;17.40;99.90
20560;DHT22;10438;51.454;6.718;2022-08-05T07:10:46;17.50;99.90
20560;DHT22;10438;51.454;6.718;2022-08-05T07:13:12;17.50;99.90
20560;DHT22;10438;51.454;6.718;2022-08-05T07:15:56;17.50;99.90
20560;DHT22;10438;51.454;6.718;2022-08-05T07:18:40;17.50;99.90
20560;DHT22;10438;51.454;6.718;2022-08-05T07:21:05;17.40;99.90
20560;DHT22;10438;51.454;6.718;2022-08-05T07:23:32;17.50;99.90
20560;DHT22;10438;51.454;6.718;2022-08-05T07:25:57;17.50;99.90
20560;DHT22;10438;51.454;6.718;2022-08-05T07:28:23;17.50;99.90
20560;DHT22;10438;51.454;6.718;2022-08-05T07:30:49;17.50;99.90
20560;DHT22;10438;51.454;6.718;2022-08-05T07:33:15;17.40;99.90
20560;DHT22;10438;51.454;6.718;2022-08-05T07:35:40;17.30;99.90
20560;DHT22;10438;51.454;6.718;2022-08-05T07:38:06;17.30;99.90
20560;DHT22;10438;51.454;6.718;2022-08-05T07:40:31;17.20;99.90
20560;DHT22;10438;51.454;6.718;2022-08-05T07:42:57;17.10;99.90
20560;DHT22;10438;51.454;6.718;2022-08-05T07:45:23;17.10;99.90
20560;DHT22;10438;51.454;6.718;2022-08-05T07:47:48;17.00;99.90
20560;DHT22;10438;51.454;6.718;2022-08-05T07:50:14;17.00;99.90
20560;DHT22;10438;51.454;6.718;2022-08-05T07:52:41;17.00;99.90
20560;DHT22;10438;51.454;6.718;2022-08-05T07:55:08;16.90;99.90
20560;DHT22;10438;51.454;6.718;2022-08-05T07:57:34;16.90;99.90
20560;DHT22;10438;51.454;6.718;2022-08-05T08:00:00;16.90;99.90
20560;DHT22;10438;51.454;6.718;2022-08-05T08:02:27;16.90;99.90
20560;DHT22;10438;51.454;6.718;2022-08-05T08:04:54;17.00;99.90
20560;DHT22;10438;51.454;6.718;2022-08-05T08:07:20;17.00;99.90
20560;DHT22;10438;51.454;6.718;2022-08-05T08:09:46;17.00;99.90
20560;DHT22;10438;51.454;6.718;2022-08-05T08:12:13;17.00;99.90
20560;DHT22;10438;51.454;6.718;2022-08-05T08:14:39;17.10;99.90
20560;DHT22;10438;51.454;6.718;2022-08-05T08:17:05;17.10;99.90
20560;DHT22;10438;51.454;6.718;2022-08-05T08:19:38;17.10;99.90
20560;DHT22;10438;51.454;6.718;2022-08-05T08:22:04;17.10;99.90
20560;DHT22;10438;51.454;6.718;2022-08-05T08:24:30;17.10;99.90
20560;DHT22;10438;51.454;6.718;2022-08-05T08:26:56;17.20;99.90
20560;DHT22;10438;51.454;6.718;2022-08-05T08:29:21;17.20;99.90
20560;DHT22;10438;51.454;6.718;2022-08-05T08:31:47;17.20;99.90
20560;DHT22;10438;51.454;6.718;2022-08-05T08:34:13;17.20;99.90
20560;DHT22;10438;51.454;6.718;2022-08-05T08:36:39;17.30;99.90
20560;DHT22;10438;51.454;6.718;2022-08-05T08:39:05;17.30;99.90
20560;DHT22;10438;51.454;6.718;2022-08-05T08:41:33;17.30;99.90
20560;DHT22;10438;51.454;6.718;2022-08-05T08:44:00;17.50;99.90
20560;DHT22;10438;51.454;6.718;2022-08-05T08:46:28;17.50;99.90
20560;DHT22;10438;51.454;6.718;2022-08-05T08:48:56;17.50;99.90
20560;DHT22;10438;51.454;6.718;2022-08-05T08:51:22;17.50;99.90
20560;DHT22;10438;51.454;6.718;2022-08-05T08:53:49;17.50;99.90
20560;DHT22;10438;51.454;6.718;2022-08-05T08:56:16;17.50;99.90
20560;DHT22;10438;51.454;6.718;2022-08-05T08:58:41;17.50;99.90
20560;DHT22;10438;51.454;6.718;2022-08-05T09:01:08;17.60;99.90
20560;DHT22;10438;51.454;6.718;2022-08-05T09:03:35;17.50;99.90
20560;DHT22;10438;51.454;6.718;2022-08-05T09:06:00;17.60;99.90
20560;DHT22;10438;51.454;6.718;2022-08-05T09:08:26;17.50;99.90
20560;DHT22;10438;51.454;6.718;2022-08-05T09:10:52;17.70;99.90
20560;DHT22;10438;51.454;6.718;2022-08-05T09:13:17;17.70;99.90
20560;DHT22;10438;51.454;6.718;2022-08-05T09:15:47;17.90;99.90
20560;DHT22;10438;51.454;6.718;2022-08-05T09:18:13;18.00;99.90
20560;DHT22;10438;51.454;6.718;2022-08-05T09:20:39;18.20;99.90
20560;DHT22;10438;51.454;6.718;2022-08-05T09:23:11;18.30;99.90
20560;DHT22;10438;51.454;6.718;2022-08-05T09:25:41;18.40;99.90
20560;DHT22;10438;51.454;6.718;2022-08-05T09:28:13;18.40;99.90
20560;DHT22;10438;51.454;6.718;2022-08-05T09:30:53;18.40;99.90
20560;DHT22;10438;51.454;6.718;2022-08-05T09:33:23;18.50;99.90
20560;DHT22;10438;51.454;6.718;2022-08-05T09:38:20;18.70;99.90
20560;DHT22;10438;51.454;6.718;2022-08-05T09:40:46;18.80;99.90
20560;DHT22;10438;51.454;6.718;2022-08-05T09:43:33;19.00;99.90
20560;DHT22;10438;51.454;6.718;2022-08-05T09:46:00;19.10;99.90
20560;DHT22;10438;51.454;6.718;2022-08-05T09:48:30;19.20;99.90
20560;DHT22;10438;51.454;6.718;2022-08-05T09:51:08;19.50;99.90
20560;DHT22;10438;51.454;6.718;2022-08-05T09:53:48;19.70;99.90
20560;DHT22;10438;51.454;6.718;2022-08-05T09:56:26;20.00;99.90
20560;DHT22;10438;51.454;6.718;2022-08-05T09:59:02;20.20;99.90
20560;DHT22;10438;51.454;6.718;2022-08-05T10:01:28;20.10;99.90
20560;DHT22;10438;51.454;6.718;2022-08-05T10:03:56;20.10;99.90
20560;DHT22;10438;51.454;6.718;2022-08-05T10:06:25;20.20;99.90
20560;DHT22;10438;51.454;6.718;2022-08-05T10:08:51;20.30;99.90
20560;DHT22;10438;51.454;6.718;2022-08-05T10:11:17;20.40;99.90
20560;DHT22;10438;51.454;6.718;2022-08-05T10:13:43;20.60;99.90
20560;DHT22;10438;51.454;6.718;2022-08-05T10:18:54;20.70;99.90
20560;DHT22;10438;51.454;6.718;2022-08-05T10:21:19;20.70;99.90
20560;DHT22;10438;51.454;6.718;2022-08-05T10:23:46;20.70;99.90
20560;DHT22;10438;51.454;6.718;2022-08-05T10:26:12;20.90;99.90
20560;DHT22;10438;51.454;6.718;2022-08-05T10:28:38;21.30;99.90
20560;DHT22;10438;51.454;6.718;2022-08-05T10:31:04;21.50;99.90
20560;DHT22;10438;51.454;6.718;2022-08-05T10:33:32;21.70;99.90
20560;DHT22;10438;51.454;6.718;2022-08-05T10:36:01;21.80;99.90
20560;DHT22;10438;51.454;6.718;2022-08-05T10:38:30;21.90;99.90
20560;DHT22;10438;51.454;6.718;2022-08-05T10:41:16;22.10;99.90
20560;DHT22;10438;51.454;6.718;2022-08-05T10:44:02;22.20;99.90
20560;DHT22;10438;51.454;6.718;2022-08-05T10:46:50;22.20;99.90
20560;DHT22;10438;51.454;6.718;2022-08-05T10:49:16;22.20;99.90
20560;DHT22;10438;51.454;6.718;2022-08-05T10:51:50;22.20;99.90
20560;DHT22;10438;51.454;6.718;2022-08-05T10:54:22;22.20;99.90
20560;DHT22;10438;51.454;6.718;2022-08-05T10:56:52;22.30;99.90
20560;DHT22;10438;51.454;6.718;2022-08-05T10:59:30;22.60;99.90
20560;DHT22;10438;51.454;6.718;2022-08-05T11:02:12;22.40;99.90
20560;DHT22;10438;51.454;6.718;2022-08-05T11:04:45;22.10;99.90
20560;DHT22;10438;51.454;6.718;2022-08-05T11:07:13;21.80;99.90
20560;DHT22;10438;51.454;6.718;2022-08-05T11:09:47;22.00;99.90
20560;DHT22;10438;51.454;6.718;2022-08-05T11:15:19;22.30;99.90
20560;DHT22;10438;51.454;6.718;2022-08-05T11:17:50;22.40;99.90
20560;DHT22;10438;51.454;6.718;2022-08-05T11:20:36;22.50;99.90
20560;DHT22;10438;51.454;6.718;2022-08-05T11:28:46;22.20;99.90
20560;DHT22;10438;51.454;6.718;2022-08-05T11:36:14;23.00;99.90
20560;DHT22;10438;51.454;6.718;2022-08-05T11:41:25;22.90;99.90
20560;DHT22;10438;51.454;6.718;2022-08-05T11:44:03;23.10;99.90
20560;DHT22;10438;51.454;6.718;2022-08-05T11:46:39;23.40;99.90
20560;DHT22;10438;51.454;6.718;2022-08-05T11:49:05;23.50;99.90
20560;DHT22;10438;51.454;6.718;2022-08-05T11:51:31;23.40;99.90
20560;DHT22;10438;51.454;6.718;2022-08-05T11:53:57;23.50;99.90
20560;DHT22;10438;51.454;6.718;2022-08-05T11:56:25;23.60;99.90
20560;DHT22;10438;51.454;6.718;2022-08-05T11:58:51;24.30;99.90
20560;DHT22;10438;51.454;6.718;2022-08-05T12:01:21;24.70;99.90
20560;DHT22;10438;51.454;6.718;2022-08-05T12:03:47;25.00;99.90
20560;DHT22;10438;51.454;6.718;2022-08-05T12:06:15;25.30;99.90
20560;DHT22;10438;51.454;6.718;2022-08-05T12:08:50;25.50;99.90
20560;DHT22;10438;51.454;6.718;2022-08-05T12:11:21;25.50;99.90
20560;DHT22;10438;51.454;6.718;2022-08-05T12:14:04;25.00;99.90
20560;DHT22;10438;51.454;6.718;2022-08-05T12:16:39;24.40;99.90
20560;DHT22;10438;51.454;6.718;2022-08-05T12:19:06;24.10;99.90
20560;DHT22;10438;51.454;6.718;2022-08-05T12:21:34;24.10;99.90
20560;DHT22;10438;51.454;6.718;2022-08-05T12:24:11;23.90;99.90
20560;DHT22;10438;51.454;6.718;2022-08-05T12:26:49;23.60;99.90
20560;DHT22;10438;51.454;6.718;2022-08-05T12:29:17;23.20;99.90
20560;DHT22;10438;51.454;6.718;2022-08-05T12:31:48;22.90;99.90
20560;DHT22;10438;51.454;6.718;2022-08-05T12:34:15;22.80;99.90
20560;DHT22;10438;51.454;6.718;2022-08-05T12:36:41;22.70;99.90
20560;DHT22;10438;51.454;6.718;2022-08-05T12:39:07;22.60;99.90
20560;DHT22;10438;51.454;6.718;2022-08-05T12:41:35;22.50;99.90
20560;DHT22;10438;51.454;6.718;2022-08-05T12:44:06;22.40;99.90
20560;DHT22;10438;51.454;6.718;2022-08-05T12:46:33;22.30;99.90
20560;DHT22;10438;51.454;6.718;2022-08-05T12:49:08;22.20;99.90
20560;DHT22;10438;51.454;6.718;2022-08-05T12:51:54;22.20;99.90
20560;DHT22;10438;51.454;6.718;2022-08-05T12:54:26;22.10;99.90
20560;DHT22;10438;51.454;6.718;2022-08-05T12:57:03;22.00;99.90
20560;DHT22;10438;51.454;6.718;2022-08-05T12:59:42;22.10;99.90
20560;DHT22;10438;51.454;6.718;2022-08-05T13:02:08;22.00;99.90
20560;DHT22;10438;51.454;6.718;2022-08-05T13:04:41;22.00;99.90
20560;DHT22;10438;51.454;6.718;2022-08-05T13:07:13;22.00;99.90
20560;DHT22;10438;51.454;6.718;2022-08-05T13:09:41;22.00;99.90
20560;DHT22;10438;51.454;6.718;2022-08-05T13:12:12;22.00;99.90
20560;DHT22;10438;51.454;6.718;2022-08-05T13:14:43;22.00;99.90
20560;DHT22;10438;51.454;6.718;2022-08-05T13:17:21;22.00;99.90
20560;DHT22;10438;51.454;6.718;2022-08-05T13:20:09;21.90;99.90
20560;DHT22;10438;51.454;6.718;2022-08-05T13:22:40;21.90;99.90
20560;DHT22;10438;51.454;6.718;2022-08-05T13:25:07;22.00;99.90
20560;DHT22;10438;51.454;6.718;2022-08-05T13:27:41;22.00;99.90
20560;DHT22;10438;51.454;6.718;2022-08-05T13:30:09;22.00;99.90
20560;DHT22;10438;51.454;6.718;2022-08-05T13:32:36;21.90;99.90
20560;DHT22;10438;51.454;6.718;2022-08-05T13:35:02;21.90;99.90
20560;DHT22;10438;51.454;6.718;2022-08-05T13:37:28;21.90;99.90
20560;DHT22;10438;51.454;6.718;2022-08-05T13:39:53;21.80;99.90
20560;DHT22;10438;51.454;6.718;2022-08-05T13:42:20;21.80;99.90
20560;DHT22;10438;51.454;6.718;2022-08-05T13:44:49;21.80;99.90
20560;DHT22;10438;51.454;6.718;2022-08-05T13:47:15;21.90;99.90
20560;DHT22;10438;51.454;6.718;2022-08-05T13:49:41;21.80;99.90
20560;DHT22;10438;51.454;6.718;2022-08-05T13:52:21;21.90;99.90
20560;DHT22;10438;51.454;6.718;2022-08-05T13:54:47;22.00;99.90
20560;DHT22;10438;51.454;6.718;2022-08-05T13:57:13;22.00;99.90
20560;DHT22;10438;51.454;6.718;2022-08-05T13:59:41;22.30;99.90
20560;DHT22;10438;51.454;6.718;2022-08-05T14:02:08;22.70;99.90
20560;DHT22;10438;51.454;6.718;2022-08-05T14:04:36;23.20;99.90
20560;DHT22;10438;51.454;6.718;2022-08-05T14:07:27;23.70;99.90
20560;DHT22;10438;51.454;6.718;2022-08-05T14:09:53;24.80;99.90
20560;DHT22;10438;51.454;6.718;2022-08-05T14:12:19;25.70;78.10
20560;DHT22;10438;51.454;6.718;2022-08-05T14:14:45;26.10;63.30
20560;DHT22;10438;51.454;6.718;2022-08-05T14:17:10;25.90;59.50
20560;DHT22;10438;51.454;6.718;2022-08-05T14:19:36;25.20;45.80
20560;DHT22;10438;51.454;6.718;2022-08-05T14:22:01;24.80;46.60
20560;DHT22;10438;51.454;6.718;2022-08-05T14:24:31;24.20;39.80
20560;DHT22;10438;51.454;6.718;2022-08-05T14:26:56;23.80;44.30
20560;DHT22;10438;51.454;6.718;2022-08-05T14:29:22;23.40;51.20
20560;DHT22;10438;51.454;6.718;2022-08-05T14:31:47;23.30;70.80
20560;DHT22;10438;51.454;6.718;2022-08-05T14:34:13;23.10;50.10
20560;DHT22;10438;51.454;6.718;2022-08-05T14:36:38;23.20;43.40
20560;DHT22;10438;51.454;6.718;2022-08-05T14:39:04;23.40;55.70
20560;DHT22;10438;51.454;6.718;2022-08-05T14:41:33;23.70;44.30
20560;DHT22;10438;51.454;6.718;2022-08-05T14:43:58;24.70;34.40
20560;DHT22;10438;51.454;6.718;2022-08-05T14:46:25;25.50;20.60
20560;DHT22;10438;51.454;6.718;2022-08-05T14:48:51;25.90;18.70
20560;DHT22;10438;51.454;6.718;2022-08-05T14:51:17;26.10;17.90
20560;DHT22;10438;51.454;6.718;2022-08-05T14:53:43;25.90;16.00
20560;DHT22;10438;51.454;6.718;2022-08-05T14:56:08;25.50;15.50
20560;DHT22;10438;51.454;6.718;2022-08-05T14:58:34;25.10;17.80
20560;DHT22;10438;51.454;6.718;2022-08-05T15:00:59;24.60;17.50
20560;DHT22;10438;51.454;6.718;2022-08-05T15:03:27;24.30;15.00
20560;DHT22;10438;51.454;6.718;2022-08-05T15:05:53;23.90;18.80
20560;DHT22;10438;51.454;6.718;2022-08-05T15:08:19;23.70;14.30
20560;DHT22;10438;51.454;6.718;2022-08-05T15:10:45;23.70;23.80
20560;DHT22;10438;51.454;6.718;2022-08-05T15:13:10;23.90;21.90
20560;DHT22;10438;51.454;6.718;2022-08-05T15:15:36;24.30;18.50
20560;DHT22;10438;51.454;6.718;2022-08-05T15:18:02;24.40;15.70
20560;DHT22;10438;51.454;6.718;2022-08-05T15:20:27;24.30;15.30
20560;DHT22;10438;51.454;6.718;2022-08-05T15:22:53;24.00;12.50
20560;DHT22;10438;51.454;6.718;2022-08-05T15:25:18;24.10;13.10
20560;DHT22;10438;51.454;6.718;2022-08-05T15:27:44;24.40;10.90
20560;DHT22;10438;51.454;6.718;2022-08-05T15:30:10;24.30;14.10
20560;DHT22;10438;51.454;6.718;2022-08-05T15:32:36;24.00;10.80
20560;DHT22;10438;51.454;6.718;2022-08-05T15:35:02;23.80;14.40
20560;DHT22;10438;51.454;6.718;2022-08-05T15:37:28;23.50;14.50
20560;DHT22;10438;51.454;6.718;2022-08-05T15:39:54;23.10;13.50
20560;DHT22;10438;51.454;6.718;2022-08-05T15:42:22;22.80;14.70
20560;DHT22;10438;51.454;6.718;2022-08-05T15:44:49;22.80;16.00
20560;DHT22;10438;51.454;6.718;2022-08-05T15:47:15;23.20;15.80
20560;DHT22;10438;51.454;6.718;2022-08-05T15:49:41;23.90;14.00
20560;DHT22;10438;51.454;6.718;2022-08-05T15:52:07;24.10;10.50
20560;DHT22;10438;51.454;6.718;2022-08-05T15:54:32;24.80;9.60
20560;DHT22;10438;51.454;6.718;2022-08-05T15:56:58;25.70;8.20
20560;DHT22;10438;51.454;6.718;2022-08-05T15:59:24;26.60;5.80
20560;DHT22;10438;51.454;6.718;2022-08-05T16:01:50;27.20;3.80
20560;DHT22;10438;51.454;6.718;2022-08-05T16:04:16;27.90;2.50
20560;DHT22;10438;51.454;6.718;2022-08-05T16:06:41;28.30;1.00
20560;DHT22;10438;51.454;6.718;2022-08-05T16:09:07;28.50;1.00
20560;DHT22;10438;51.454;6.718;2022-08-05T16:11:35;28.70;1.00
20560;DHT22;10438;51.454;6.718;2022-08-05T16:14:00;28.90;1.00
20560;DHT22;10438;51.454;6.718;2022-08-05T16:16:26;28.80;1.00